Time;durP1;ratioP1;P1;durP2;ratioP2;P2;SDS_P1;SDS_P2;PMS_P1;PMS_P2;Temp;Humidity;BMP_temperature;BMP_pressure;BME280_temperature;BME280_humidity;BME280_pressure;Samples;Min_cycle;Max_cycle;Signal;HPM_P1;HPM_P2
2021/07/11 00:00:46;;;;;;;5.83;3.13;;;;;;;18.44;70.83;99443.53;5073900;28;20497;-68
2021/07/11 00:03:17;;;;;;;4.65;2.92;;;;;;;18.56;71.06;99440.53;5073627;28;20044;-68
2021/07/11 00:05:46;;;;;;;4.05;2.85;;;;;;;18.72;70.85;99449.41;5055768;28;20059;-68
2021/07/11 00:08:14;;;;;;;4.13;2.95;;;;;;;18.91;70.55;99436.63;5073571;28;20048;-67
2021/07/11 00:10:43;;;;;;;4.43;3.00;;;;;;;19.14;69.96;99440.91;5073840;28;20041;-67
2021/07/11 00:13:12;;;;;;;4.10;2.75;;;;;;;19.19;69.59;99439.84;5073369;28;20075;-68
2021/07/11 00:15:42;;;;;;;5.78;3.35;;;;;;;19.22;69.22;99433.66;5074170;28;20049;-68
2021/07/11 00:18:13;;;;;;;5.00;3.20;;;;;;;19.27;69.13;99436.91;5055615;28;20552;-67
2021/07/11 00:20:43;;;;;;;4.82;3.35;;;;;;;19.31;68.78;99438.50;5073821;28;20450;-67
2021/07/11 00:23:12;;;;;;;4.47;2.90;;;;;;;19.31;68.80;99433.31;5073859;28;20394;-67
2021/07/11 00:25:42;;;;;;;4.93;3.03;;;;;;;19.17;69.06;99436.44;5073390;28;20474;-67
2021/07/11 00:28:11;;;;;;;4.15;3.05;;;;;;;19.16;69.20;99433.94;5073408;28;20036;-68
2021/07/11 00:30:40;;;;;;;4.88;3.55;;;;;;;19.15;69.18;99434.81;5073338;28;20051;-68
2021/07/11 00:33:10;;;;;;;4.88;3.80;;;;;;;19.09;69.44;99432.47;5073518;28;20059;-67
2021/07/11 00:35:39;;;;;;;4.72;3.03;;;;;;;19.05;69.99;99436.09;5073614;28;20040;-68
2021/07/11 00:38:09;;;;;;;5.17;3.40;;;;;;;19.10;70.06;99434.19;5073250;28;20049;-68
2021/07/11 00:40:39;;;;;;;5.47;3.13;;;;;;;19.15;70.01;99433.06;5073943;28;20724;-67
2021/07/11 00:43:08;;;;;;;4.85;3.70;;;;;;;19.13;69.94;99431.44;5076986;28;20123;-68
2021/07/11 00:45:40;;;;;;;5.30;3.45;;;;;;;19.20;69.76;99435.47;5077601;28;20064;-68
2021/07/11 00:48:10;;;;;;;6.13;3.20;;;;;;;19.24;69.63;99431.88;5077240;28;20028;-67
2021/07/11 00:50:39;;;;;;;4.32;3.33;;;;;;;19.28;69.50;99433.44;5059277;28;20068;-68
2021/07/11 00:53:16;;;;;;;4.10;3.08;;;;;;;19.30;69.70;99434.22;5077059;28;20052;-68
2021/07/11 00:55:46;;;;;;;4.50;3.38;;;;;;;19.41;69.63;99429.50;5059243;28;20106;-68
2021/07/11 00:58:15;;;;;;;5.13;3.60;;;;;;;19.50;69.16;99426.53;5076938;28;20048;-68
2021/07/11 01:00:56;;;;;;;4.53;3.42;;;;;;;19.47;69.25;99429.22;5059139;28;20304;-67
2021/07/11 01:03:30;;;;;;;4.75;3.42;;;;;;;19.49;69.32;99424.84;5076762;28;20044;-67
2021/07/11 01:06:00;;;;;;;4.75;3.70;;;;;;;19.53;69.02;99428.97;5077467;28;20048;-68
2021/07/11 01:08:43;;;;;;;4.95;3.30;;;;;;;19.59;68.96;99428.72;5077198;28;20063;-68
2021/07/11 01:11:18;;;;;;;4.43;3.30;;;;;;;19.59;69.04;99433.91;5077099;28;20108;-68
2021/07/11 01:13:48;;;;;;;5.93;4.03;;;;;;;19.56;69.17;99428.84;5076615;28;20440;-68
2021/07/11 01:16:24;;;;;;;5.60;3.92;;;;;;;19.54;69.22;99425.50;5058960;28;20127;-67
2021/07/11 01:19:29;;;;;;;6.22;3.55;;;;;;;19.53;69.44;99428.97;5076925;28;20056;-67
2021/07/11 01:22:03;;;;;;;5.40;3.47;;;;;;;19.55;69.43;99424.59;5059103;28;20127;-68
2021/07/11 01:24:41;;;;;;;;;;;;;;;19.50;69.59;99425.69;5059188;28;20120;-68
2021/07/11 01:27:17;;;;;;;5.47;3.60;;;;;;;19.56;69.64;99423.66;5076487;28;20374;-67
2021/07/11 01:29:48;;;;;;;4.90;3.75;;;;;;;19.61;69.60;99424.31;5055540;28;20102;-67
2021/07/11 01:32:18;;;;;;;6.95;4.05;;;;;;;19.70;69.41;99423.94;5055691;28;20438;-68
2021/07/11 01:34:50;;;;;;;4.75;3.67;;;;;;;19.72;69.27;99424.75;5056432;28;20076;-67
2021/07/11 01:37:21;;;;;;;5.53;3.58;;;;;;;19.72;69.31;99424.75;5056986;28;20136;-68
2021/07/11 01:39:51;;;;;;;5.05;3.75;;;;;;;19.74;69.03;99420.34;5056309;28;20045;-67
2021/07/11 01:42:22;;;;;;;6.20;4.18;;;;;;;19.71;69.26;99423.03;5056212;28;20044;-67
2021/07/11 01:44:52;;;;;;;6.20;4.00;;;;;;;19.76;69.03;99421.09;5056182;28;20076;-67
2021/07/11 01:47:20;;;;;;;;;;;;;;;19.79;68.81;99421.00;5055319;28;20053;-68
2021/07/11 01:49:50;;;;;;;5.15;3.58;;;;;;;19.83;68.94;99426.88;5054886;28;20290;-68
2021/07/11 01:52:19;;;;;;;;;;;;;;;19.88;68.80;99425.78;5056122;28;20072;-68
2021/07/11 01:54:52;;;;;;;4.60;3.40;;;;;;;19.94;68.84;99424.66;5054775;28;19970;-68
2021/07/11 01:57:23;;;;;;;6.90;3.95;;;;;;;19.97;68.75;99419.34;5054862;28;20065;-68
2021/07/11 01:59:55;;;;;;;5.07;4.15;;;;;;;20.00;68.66;99432.19;5055845;28;20052;-68
2021/07/11 02:02:43;;;;;;;6.63;3.70;;;;;;;19.99;68.59;99441.69;5055953;28;20045;-68
2021/07/11 02:05:20;;;;;;;5.95;4.10;;;;;;;20.06;68.60;99437.91;5054643;28;20053;-68
2021/07/11 02:07:53;;;;;;;7.95;4.28;;;;;;;20.13;68.39;99435.91;5055786;28;20128;-68
2021/07/11 02:10:22;;;;;;;;;;;;;;;20.14;68.58;99429.81;5056295;28;20051;-68
2021/07/11 02:13:08;;;;;;;5.93;4.30;;;;;;;20.17;68.55;99421.06;5055055;28;20392;-68
2021/07/11 02:15:44;;;;;;;7.93;4.53;;;;;;;20.19;68.46;99419.25;5054485;28;20049;-68
2021/07/11 02:18:16;;;;;;;5.70;4.18;;;;;;;20.24;68.42;99412.16;5054391;28;20055;-68
2021/07/11 02:20:54;;;;;;;6.43;4.07;;;;;;;20.24;68.47;99422.53;5055882;28;20045;-68
2021/07/11 02:23:27;;;;;;;5.88;4.20;;;;;;;20.24;68.43;99427.69;5054312;28;20095;-68
2021/07/11 02:25:59;;;;;;;9.20;5.05;;;;;;;20.26;68.29;99431.91;5055735;28;20045;-68
2021/07/11 02:28:36;;;;;;;8.88;4.45;;;;;;;20.26;68.18;99425.88;5055382;28;20048;-68
2021/07/11 02:31:11;;;;;;;5.53;4.25;;;;;;;20.25;68.33;99426.81;5055284;28;20055;-67
2021/07/11 02:33:42;;;;;;;5.22;4.20;;;;;;;20.27;68.33;99427.56;5055202;28;20503;-68
2021/07/11 02:36:14;;;;;;;6.80;4.65;;;;;;;20.27;67.92;99427.56;5055571;28;20045;-67
2021/07/11 02:38:48;;;;;;;5.20;3.92;;;;;;;20.30;67.92;99430.03;5055516;28;20052;-67
2021/07/11 02:41:19;;;;;;;6.05;3.97;;;;;;;20.31;68.10;99423.94;5055071;28;20056;-67
2021/07/11 02:43:57;;;;;;;4.93;3.70;;;;;;;20.28;68.26;99427.50;5053920;28;20056;-68
2021/07/11 02:46:33;;;;;;;4.68;3.92;;;;;;;20.29;68.11;99430.94;5053851;28;20048;-68
2021/07/11 02:49:06;;;;;;;5.88;3.95;;;;;;;20.31;68.00;99423.94;5053807;28;20067;-68
2021/07/11 02:51:41;;;;;;;5.53;4.22;;;;;;;20.33;67.91;99420.38;5054591;28;20045;-68
2021/07/11 02:54:17;;;;;;;5.45;3.90;;;;;;;20.33;67.77;99420.38;5053646;28;20052;-67
2021/07/11 02:56:51;;;;;;;6.15;3.88;;;;;;;20.32;67.75;99425.63;5054807;28;20056;-67
2021/07/11 02:59:24;;;;;;;5.07;4.22;;;;;;;20.36;67.78;99421.97;5055107;28;20052;-68
2021/07/11 03:01:54;;;;;;;5.68;4.25;;;;;;;20.38;67.59;99415.81;5055061;28;20120;-68
2021/07/11 03:04:29;;;;;;;5.28;3.70;;;;;;;20.37;67.87;99419.31;5054571;28;20049;-68
2021/07/11 03:07:00;;;;;;;5.43;4.28;;;;;;;20.36;67.70;99411.59;5053981;28;20075;-67
2021/07/11 03:09:29;;;;;;;5.10;4.20;;;;;;;20.36;67.77;99409.00;5053682;28;20065;-67
2021/07/11 03:11:59;;;;;;;6.57;3.78;;;;;;;20.39;67.61;99419.25;5054543;28;20061;-68
2021/07/11 03:14:30;;;;;;;;;;;;;;;20.37;67.55;99414.13;5055136;28;20123;-67
2021/07/11 03:17:02;;;;;;;4.88;4.18;;;;;;;20.33;67.65;99416.91;5053266;28;19924;-68
2021/07/11 03:19:38;;;;;;;4.82;3.70;;;;;;;20.30;67.79;99419.66;5053219;28;20048;-67
2021/07/11 03:22:11;;;;;;;4.85;3.78;;;;;;;20.30;67.79;99422.25;5054315;28;20048;-68
2021/07/11 03:24:41;;;;;;;4.97;3.78;;;;;;;20.35;67.75;99425.47;5054232;28;20049;-68
2021/07/11 03:27:14;;;;;;;8.40;4.40;;;;;;;20.33;67.57;99416.91;5053371;28;20060;-68
2021/07/11 03:29:54;;;;;;;7.75;4.47;;;;;;;20.33;67.66;99416.91;5062773;28;20491;-68
2021/07/11 03:32:24;;;;;;;4.85;4.13;;;;;;;20.33;67.65;99422.09;5074028;28;20490;-68
2021/07/11 03:34:53;;;;;;;6.30;4.88;;;;;;;20.33;67.69;99416.91;5074007;28;20045;-68
2021/07/11 03:37:28;;;;;;;5.47;4.15;;;;;;;20.31;67.60;99414.41;5056187;28;20056;-68
2021/07/11 03:39:58;;;;;;;5.30;4.15;;;;;;;20.35;67.77;99415.09;5056140;28;20063;-68
2021/07/11 03:42:35;;;;;;;6.95;4.43;;;;;;;20.34;67.54;99418.63;5074164;28;20045;-67
2021/07/11 03:45:09;;;;;;;6.78;4.25;;;;;;;20.32;67.69;99415.25;5056420;28;20036;-68
2021/07/11 03:47:43;;;;;;;5.30;4.32;;;;;;;20.34;67.42;99423.81;5074206;28;20048;-68
2021/07/11 03:50:13;;;;;;;4.85;3.78;;;;;;;20.39;67.18;99421.84;5074224;28;20048;-68
2021/07/11 03:52:47;;;;;;;5.65;4.28;;;;;;;20.38;67.42;99420.16;5074275;28;20044;-68
2021/07/11 03:55:18;;;;;;;7.45;4.65;;;;;;;20.43;67.38;99424.22;5074336;28;20418;-68
2021/07/11 03:57:49;;;;;;;5.40;4.40;;;;;;;20.49;67.21;99423.13;5074378;28;20090;-68
2021/07/11 04:00:21;;;;;;;7.22;4.80;;;;;;;20.58;67.17;99422.69;5073778;28;20090;-67
2021/07/11 04:02:53;;;;;;;5.20;4.05;;;;;;;20.64;67.14;99428.44;5073628;28;20049;-67
2021/07/11 04:05:24;;;;;;;4.32;3.60;;;;;;;20.71;67.08;99434.19;5074013;28;20063;-68
2021/07/11 04:07:55;;;;;;;6.35;3.78;;;;;;;20.77;66.93;99428.72;5073621;28;20055;-67
2021/07/11 04:10:25;;;;;;;5.70;3.58;;;;;;;20.78;66.95;99434.75;5073624;28;20041;-67
2021/07/11 04:12:55;;;;;;;4.50;3.13;;;;;;;20.76;67.17;99429.63;5074124;28;20042;-68
2021/07/11 04:15:27;;;;;;;5.20;3.95;;;;;;;20.75;67.22;99424.53;5074088;28;20123;-68
2021/07/11 04:18:03;;;;;;;5.85;3.50;;;;;;;20.79;67.07;99432.09;5073552;28;20052;-68
2021/07/11 04:20:33;;;;;;;4.28;3.40;;;;;;;20.82;66.72;99431.97;5073512;28;20048;-68
2021/07/11 04:23:03;;;;;;;4.75;3.72;;;;;;;20.87;66.40;99430.00;5073505;28;20051;-68
2021/07/11 04:25:35;;;;;;;4.38;3.30;;;;;;;20.94;66.12;99431.38;5073426;28;20044;-68
2021/07/11 04:28:04;;;;;;;5.40;3.75;;;;;;;20.99;65.76;99426.81;5073464;28;20533;-67
2021/07/11 04:30:35;;;;;;;;;;;;;;;21.05;65.59;99430.91;5073505;28;20063;-67
2021/07/11 04:33:04;;;;;;;5.18;3.47;;;;;;;21.06;65.76;99435.19;5073420;28;19928;-68
2021/07/11 04:35:33;;;;;;;5.80;3.92;;;;;;;21.09;65.55;99440.25;5073513;28;20073;-68
2021/07/11 04:38:02;;;;;;;4.53;3.53;;;;;;;21.16;65.80;99437.25;5073603;28;20495;-68
2021/07/11 04:40:31;;;;;;;4.60;3.60;;;;;;;21.29;65.72;99438.38;5073541;28;20124;-68
2021/07/11 04:43:00;;;;;;;7.23;3.07;;;;;;;21.38;65.04;99431.06;5073563;28;20106;-68
2021/07/11 04:45:29;;;;;;;4.93;3.25;;;;;;;21.47;64.43;99435.78;5073190;28;20281;-68
2021/07/11 04:48:00;;;;;;;4.70;3.30;;;;;;;21.51;64.19;99439.91;5073205;28;20513;-68
2021/07/11 04:50:30;;;;;;;4.95;3.55;;;;;;;21.53;63.80;99438.06;5073557;28;20131;-68
2021/07/11 04:52:59;;;;;;;5.03;3.17;;;;;;;21.56;64.08;99448.31;5073152;28;20048;-68
2021/07/11 04:55:29;;;;;;;5.18;3.00;;;;;;;21.62;63.40;99445.44;5072984;28;20037;-68
2021/07/11 04:57:57;;;;;;;5.80;3.47;;;;;;;21.70;63.10;99448.47;5073177;28;20060;-68
2021/07/11 05:00:26;;;;;;;4.55;3.47;;;;;;;21.69;62.91;99457.22;5073102;28;20124;-68
2021/07/11 05:02:55;;;;;;;4.45;3.65;;;;;;;21.63;62.85;99452.31;5073016;28;20041;-68
2021/07/11 05:05:26;;;;;;;5.80;4.20;;;;;;;21.61;63.08;99469.72;5073002;28;20040;-68
2021/07/11 05:07:55;;;;;;;7.30;3.33;;;;;;;21.56;63.38;99471.69;5073653;28;20052;-69
2021/07/11 05:10:24;;;;;;;3.70;3.10;;;;;;;21.21;65.21;99469.03;5073366;28;20064;-68
2021/07/11 05:12:52;;;;;;;5.65;3.83;;;;;;;20.85;67.00;99467.28;5072920;28;20273;-68
2021/07/11 05:15:21;;;;;;;7.13;4.50;;;;;;;20.84;67.48;99473.38;5072794;28;20124;-68
2021/07/11 05:17:50;;;;;;;5.55;4.40;;;;;;;20.78;67.66;99471.09;5072923;28;20094;-68
2021/07/11 05:20:19;;;;;;;5.22;4.53;;;;;;;20.60;69.08;99472.75;5073199;28;20041;-69
2021/07/11 05:22:50;;;;;;;6.07;4.63;;;;;;;20.40;70.12;99477.97;5073177;28;20055;-69
2021/07/11 05:25:19;;;;;;;9.50;5.60;;;;;;;20.34;71.25;99465.28;5073099;28;20044;-71
2021/07/11 05:27:49;;;;;;;9.93;5.65;;;;;;;20.45;72.04;99457.84;5073650;28;20506;-71
2021/07/11 05:30:19;;;;;;;9.10;5.70;;;;;;;20.37;72.74;99465.16;5076240;28;20118;-71
2021/07/11 05:32:48;;;;;;;7.28;5.53;;;;;;;20.21;73.50;99464.09;5076494;28;20040;-72
2021/07/11 05:35:17;;;;;;;8.48;6.10;;;;;;;20.33;74.15;99469.63;5076194;28;20036;-72
2021/07/11 05:37:46;;;;;;;11.38;6.07;;;;;;;20.31;74.40;99480.97;5076258;28;20086;-72
2021/07/11 05:40:17;;;;;;;8.52;6.20;;;;;;;20.15;74.75;99478.16;5076246;28;20067;-71
2021/07/11 05:42:46;;;;;;;7.55;5.90;;;;;;;20.07;75.79;99477.63;5076521;28;20129;-71
2021/07/11 05:45:15;;;;;;;10.57;6.30;;;;;;;20.11;76.61;99484.38;5076164;28;20044;-71
2021/07/11 05:47:44;;;;;;;6.97;5.95;;;;;;;20.20;77.14;99490.94;5076041;28;20516;-72
2021/07/11 05:50:14;;;;;;;9.50;6.57;;;;;;;20.19;77.64;99491.81;5076066;28;20051;-72
2021/07/11 05:52:44;;;;;;;8.75;6.43;;;;;;;20.12;78.38;99500.75;5076023;28;20048;-71
2021/07/11 05:55:14;;;;;;;9.95;6.75;;;;;;;20.08;79.01;99509.59;5076215;28;20036;-71
2021/07/11 05:57:44;;;;;;;9.50;7.07;;;;;;;19.97;79.74;99513.47;5076142;28;20486;-71
2021/07/11 06:00:14;;;;;;;8.73;7.50;;;;;;;19.97;80.51;99512.63;5075898;28;20132;-71
2021/07/11 06:02:43;;;;;;;11.07;7.43;;;;;;;20.05;80.90;99514.00;5075836;28;20135;-71
2021/07/11 06:05:12;;;;;;;9.23;7.93;;;;;;;20.11;80.98;99514.66;5075812;28;20056;-71
2021/07/11 06:07:41;;;;;;;13.07;8.00;;;;;;;20.16;80.99;99508.34;5075763;28;20269;-71
2021/07/11 06:10:11;;;;;;;12.50;7.57;;;;;;;20.22;81.01;99489.09;5075961;28;20421;-71
2021/07/11 06:12:40;;;;;;;8.25;7.35;;;;;;;20.28;81.13;99486.28;5075637;28;20086;-71
2021/07/11 06:15:12;;;;;;;8.15;7.05;;;;;;;20.38;80.92;99478.03;5075456;28;20498;-71
2021/07/11 06:17:41;;;;;;;10.18;7.38;;;;;;;20.44;80.41;99476.94;5075572;28;20072;-71
2021/07/11 06:20:12;;;;;;;9.00;7.22;;;;;;;20.45;80.33;99478.59;5075653;28;20119;-72
2021/07/11 06:22:42;;;;;;;9.35;7.10;;;;;;;20.43;80.25;99472.66;5075492;28;20068;-72
2021/07/11 06:25:11;;;;;;;9.65;7.00;;;;;;;20.35;80.18;99472.13;5075352;28;20120;-71
2021/07/11 06:27:41;;;;;;;;;;;;;;;20.20;80.25;99483.16;5076027;28;20055;-71
2021/07/11 06:30:14;;;;;;;10.65;8.23;;;;;;;20.21;80.84;99500.38;5075192;28;19920;-71
2021/07/11 06:32:45;;;;;;;9.27;7.75;;;;;;;20.20;80.64;99516.84;5075562;28;20040;-72
2021/07/11 06:35:15;;;;;;;9.85;8.00;;;;;;;20.27;80.63;99526.06;5075160;28;20154;-71
2021/07/11 06:37:46;;;;;;;10.18;7.70;;;;;;;20.32;80.62;99529.31;5075151;28;20072;-71
2021/07/11 06:40:17;;;;;;;9.02;7.65;;;;;;;20.30;80.67;99520.78;5074044;28;20048;-71
2021/07/11 06:42:46;;;;;;;9.32;7.07;;;;;;;20.36;80.73;99530.88;5075281;28;20052;-70
2021/07/11 06:45:17;;;;;;;11.18;8.45;;;;;;;20.35;80.58;99529.16;5057088;28;20491;-71
2021/07/11 06:47:46;;;;;;;9.15;7.82;;;;;;;20.35;80.53;99523.97;5074919;28;20080;-71
2021/07/11 06:50:17;;;;;;;9.25;7.88;;;;;;;20.26;80.73;99529.56;5074854;28;20087;-71
2021/07/11 06:52:50;;;;;;;9.88;8.00;;;;;;;20.21;81.22;99541.84;5074900;28;20052;-71
2021/07/11 06:55:19;;;;;;;9.23;7.72;;;;;;;20.22;81.34;99538.34;5056904;28;20059;-71
2021/07/11 06:57:48;;;;;;;10.32;8.45;;;;;;;20.13;81.63;99559.47;5074829;28;20043;-71
2021/07/11 07:00:20;;;;;;;;;;;;;;;20.16;81.74;99574.88;5075138;28;20063;-71
2021/07/11 07:02:49;;;;;;;9.45;7.97;;;;;;;20.04;82.11;99597.81;5074934;28;19921;-71
2021/07/11 07:05:18;;;;;;;10.40;9.32;;;;;;;19.89;82.18;99608.78;5074553;28;20129;-70
2021/07/11 07:07:47;;;;;;;12.93;9.98;;;;;;;19.72;82.57;99606.03;5074663;28;20040;-70
2021/07/11 07:10:16;;;;;;;12.80;9.57;;;;;;;19.79;83.15;99606.63;5074904;28;20450;-69
2021/07/11 07:12:45;;;;;;;14.20;10.32;;;;;;;19.68;83.37;99620.00;5074405;28;20395;-70
2021/07/11 07:15:14;;;;;;;12.38;10.30;;;;;;;19.66;83.94;99626.97;5074616;28;20067;-70
2021/07/11 07:17:45;;;;;;;13.45;10.43;;;;;;;19.77;84.09;99645.53;5074623;28;20127;-69
2021/07/11 07:20:16;;;;;;;14.20;11.07;;;;;;;19.83;84.48;99634.94;5074252;28;20045;-69
2021/07/11 07:22:45;;;;;;;12.70;11.07;;;;;;;19.85;84.45;99622.78;5074312;28;20479;-69
2021/07/11 07:25:18;;;;;;;;;;;;;;;19.94;84.43;99617.22;5074578;28;20048;-69
2021/07/11 07:27:48;;;;;;;11.32;8.65;;;;;;;20.03;84.37;99618.63;5074206;28;19969;-69
2021/07/11 07:30:19;;;;;;;11.57;9.55;;;;;;;20.04;84.28;99623.72;5073931;28;20045;-69
2021/07/11 07:32:51;;;;;;;11.50;9.77;;;;;;;19.91;83.87;99638.09;5074568;28;20478;-70
2021/07/11 07:35:21;;;;;;;11.02;8.80;;;;;;;19.79;84.00;99628.19;5074072;28;20098;-70
2021/07/11 07:37:51;;;;;;;10.30;9.05;;;;;;;19.93;84.17;99605.19;5074113;28;20483;-70
2021/07/11 07:40:21;;;;;;;10.38;8.18;;;;;;;20.01;84.12;99608.28;5073950;28;20127;-70
2021/07/11 07:42:50;;;;;;;10.23;8.63;;;;;;;20.04;84.24;99600.41;5073943;28;20041;-69
2021/07/11 07:45:20;;;;;;;11.80;9.35;;;;;;;20.10;84.26;99607.09;5074531;28;20043;-70
2021/07/11 07:47:51;;;;;;;10.40;9.15;;;;;;;20.02;84.05;99615.19;5074168;28;20036;-70
2021/07/11 07:50:20;;;;;;;13.35;10.05;;;;;;;19.97;84.10;99611.06;5073539;28;20056;-70
2021/07/11 07:52:49;;;;;;;15.65;11.27;;;;;;;19.92;84.11;99598.31;5073698;28;20098;-70
2021/07/11 07:55:18;;;;;;;11.82;10.23;;;;;;;19.90;84.60;99600.13;5074006;28;20098;-70
2021/07/11 07:57:48;;;;;;;12.68;9.80;;;;;;;19.98;84.47;99613.63;5073987;28;20425;-68
2021/07/11 08:00:18;;;;;;;11.48;10.18;;;;;;;20.01;84.80;99629.03;5073635;28;20045;-70
2021/07/11 08:02:47;;;;;;;11.65;9.82;;;;;;;20.04;84.69;99639.28;5073678;28;20128;-70
2021/07/11 08:05:18;;;;;;;12.30;10.00;;;;;;;20.01;84.75;99636.78;5073631;28;20119;-70
2021/07/11 08:07:47;;;;;;;11.15;9.52;;;;;;;20.08;84.85;99635.63;5073847;28;20450;-70
2021/07/11 08:10:16;;;;;;;11.07;9.55;;;;;;;20.03;84.70;99621.22;5073540;28;20064;-70
2021/07/11 08:12:47;;;;;;;11.50;9.75;;;;;;;20.06;84.91;99626.25;5073518;28;20033;-70
2021/07/11 08:15:20;;;;;;;13.15;9.90;;;;;;;20.06;84.85;99616.72;5073540;28;20414;-70
2021/07/11 08:17:51;;;;;;;13.70;10.10;;;;;;;20.08;84.90;99603.72;5073245;28;20044;-70
2021/07/11 08:20:23;;;;;;;12.73;10.57;;;;;;;20.05;84.84;99615.06;5073346;28;20056;-70
2021/07/11 08:22:53;;;;;;;13.73;10.68;;;;;;;20.08;85.13;99618.44;5073588;28;20398;-72
2021/07/11 08:25:23;;;;;;;16.30;10.95;;;;;;;20.20;85.30;99616.19;5073322;28;20056;-70
2021/07/11 08:27:52;;;;;;;;;;;;;;;20.26;85.21;99615.09;5073650;28;20066;-72
2021/07/11 08:30:21;;;;;;;15.93;10.07;;;;;;;20.27;85.17;99624.59;5073196;28;19920;-72
2021/07/11 08:32:50;;;;;;;14.68;10.93;;;;;;;20.20;84.97;99630.91;5073654;28;20575;-71
2021/07/11 08:35:19;;;;;;;16.08;12.25;;;;;;;20.16;85.10;99631.91;5073225;28;20052;-71
2021/07/11 08:37:50;;;;;;;14.50;11.50;;;;;;;20.21;85.36;99622.19;5073040;28;20513;-71
2021/07/11 08:40:20;;;;;;;15.65;11.85;;;;;;;20.21;85.28;99614.41;5073825;28;20127;-71
2021/07/11 08:42:51;;;;;;;15.63;12.73;;;;;;;20.28;85.39;99606.38;5073168;28;20403;-72
2021/07/11 08:45:21;;;;;;;14.10;11.23;;;;;;;20.29;85.49;99607.22;5073203;28;20045;-71
2021/07/11 08:47:49;;;;;;;14.85;11.93;;;;;;;20.34;85.41;99602.69;5055331;28;20119;-72
2021/07/11 08:50:18;;;;;;;15.65;11.35;;;;;;;20.33;85.46;99595.78;5073157;28;20036;-72
2021/07/11 08:52:49;;;;;;;16.13;11.68;;;;;;;20.36;85.25;99601.72;5073146;28;20060;-72
2021/07/11 08:55:20;;;;;;;13.70;10.13;;;;;;;20.38;85.60;99601.63;5073120;28;20494;-73
2021/07/11 08:57:51;;;;;;;11.20;8.65;;;;;;;20.37;85.52;99605.97;5073630;28;20039;-72
2021/07/11 09:00:24;;;;;;;9.70;6.80;;;;;;;20.34;85.26;99600.94;5073344;28;20043;-72
2021/07/11 09:02:53;;;;;;;9.00;6.65;;;;;;;20.32;85.05;99614.88;5056651;28;20047;-72
2021/07/11 09:05:24;;;;;;;7.70;6.00;;;;;;;20.31;84.79;99613.16;5077144;28;20052;-71
2021/07/11 09:08:08;;;;;;;8.20;5.47;;;;;;;20.29;84.47;99618.44;5059144;28;20134;-72
2021/07/11 09:10:41;;;;;;;7.43;4.40;;;;;;;20.27;83.95;99619.41;5076829;28;20127;-71
2021/07/11 09:13:12;;;;;;;7.90;4.25;;;;;;;20.24;83.68;99620.38;5076731;28;20059;-71
2021/07/11 09:15:45;;;;;;;8.43;3.78;;;;;;;20.16;83.68;99637.94;5076617;28;20379;-71
2021/07/11 09:18:15;;;;;;;6.53;3.63;;;;;;;20.16;83.42;99642.25;5076649;28;20037;-71
2021/07/11 09:20:51;;;;;;;8.75;3.45;;;;;;;20.14;83.39;99647.53;5076526;28;20287;-71
2021/07/11 09:23:23;;;;;;;6.70;3.50;;;;;;;20.13;83.65;99645.00;5076585;28;20379;-71
2021/07/11 09:26:00;;;;;;;9.25;4.20;;;;;;;20.09;83.64;99662.41;5076726;28;20052;-72
2021/07/11 09:28:31;;;;;;;11.35;4.72;;;;;;;20.06;83.63;99658.19;5076526;28;20048;-71
2021/07/11 09:31:02;;;;;;;9.50;6.13;;;;;;;20.13;84.01;99658.78;5076329;28;20056;-71
2021/07/11 09:33:32;;;;;;;12.77;7.90;;;;;;;20.24;84.14;99666.16;5076395;28;20101;-71
2021/07/11 09:36:05;;;;;;;;;;;;;;;20.28;84.31;99662.53;5067018;28;20059;-71
2021/07/11 09:38:36;;;;;;;12.60;9.68;;;;;;;20.29;84.49;99664.25;5075580;28;19920;-72
2021/07/11 09:41:28;;;;;;;13.60;9.63;;;;;;;20.30;84.32;99663.34;5065342;28;20040;-70
2021/07/11 09:44:05;;;;;;;13.90;10.25;;;;;;;20.28;84.51;99652.16;5063292;28;20049;-71
2021/07/11 09:46:35;;;;;;;13.38;10.30;;;;;;;20.31;84.45;99652.06;5066366;28;20555;-71
2021/07/11 09:49:15;;;;;;;13.05;9.85;;;;;;;20.32;84.84;99658.94;5065005;28;20091;-71
2021/07/11 09:51:45;;;;;;;11.27;9.52;;;;;;;20.31;84.51;99657.25;5066774;28;20483;-71
2021/07/11 09:54:16;;;;;;;14.55;9.75;;;;;;;20.29;84.98;99653.88;5064631;28;20041;-71
2021/07/11 09:56:47;;;;;;;15.07;10.13;;;;;;;20.31;85.04;99652.06;5065101;28;20043;-71
2021/07/11 09:59:18;;;;;;;13.38;9.35;;;;;;;20.30;85.09;99645.22;5058413;28;20049;-71
2021/07/11 10:01:47;;;;;;;8.70;7.30;;;;;;;20.25;84.87;99644.53;5055924;28;20048;-71
2021/07/11 10:04:16;;;;;;;10.73;7.25;;;;;;;20.15;84.78;99661.34;5055689;28;20080;-72
2021/07/11 10:06:45;;;;;;;8.75;6.63;;;;;;;20.03;84.57;99657.47;5055787;28;20225;-71
2021/07/11 10:09:16;;;;;;;12.93;7.47;;;;;;;20.02;84.64;99656.63;5038000;28;20068;-72
2021/07/11 10:11:45;;;;;;;9.73;6.72;;;;;;;20.03;84.75;99658.31;5055743;28;20106;-71
2021/07/11 10:14:14;;;;;;;9.68;6.50;;;;;;;20.03;84.73;99671.25;5055389;28;20063;-71
2021/07/11 10:16:44;;;;;;;10.07;7.63;;;;;;;19.95;84.59;99665.56;5055566;28;20045;-71
2021/07/11 10:19:14;;;;;;;9.40;7.20;;;;;;;19.95;84.60;99670.75;5055403;28;20183;-71
2021/07/11 10:21:46;;;;;;;9.85;6.95;;;;;;;20.03;84.78;99679.03;5055483;28;20044;-72
2021/07/11 10:24:23;;;;;;;10.20;7.65;;;;;;;20.08;84.83;99670.25;5055415;28;20127;-72
2021/07/11 10:26:53;;;;;;;10.38;7.20;;;;;;;20.11;84.78;99664.97;5055445;28;20044;-72
2021/07/11 10:29:23;;;;;;;9.60;6.75;;;;;;;20.10;84.60;99666.69;5055023;28;20049;-72
2021/07/11 10:31:55;;;;;;;9.43;6.80;;;;;;;20.10;84.67;99673.63;5055216;28;20047;-72
2021/07/11 10:34:30;;;;;;;10.18;6.63;;;;;;;20.11;84.77;99670.16;5055311;28;20040;-72
2021/07/11 10:37:11;;;;;;;9.05;7.22;;;;;;;20.13;84.75;99678.69;5055171;28;20403;-72
2021/07/11 10:39:42;;;;;;;9.93;6.43;;;;;;;20.13;84.82;99695.06;5055096;28;20045;-71
2021/07/11 10:42:12;;;;;;;12.27;6.70;;;;;;;20.15;85.02;99677.72;5055097;28;20094;-72
2021/07/11 10:44:41;;;;;;;9.48;6.40;;;;;;;20.18;85.05;99672.41;5055271;28;20445;-73
2021/07/11 10:47:10;;;;;;;8.52;6.55;;;;;;;20.24;85.13;99676.53;5054892;28;20495;-72
2021/07/11 10:49:50;;;;;;;;;;;;;;;20.31;85.20;99688.34;5055574;28;20075;-72
2021/07/11 10:52:24;;;;;;;9.48;6.72;;;;;;;20.32;84.89;99703.00;5055144;28;19921;-71
2021/07/11 10:54:57;;;;;;;9.00;6.10;;;;;;;20.35;84.92;99689.91;5054853;28;20143;-72
2021/07/11 10:57:28;;;;;;;7.80;5.57;;;;;;;20.36;84.93;99674.31;5037024;28;20120;-72
2021/07/11 11:00:12;;;;;;;7.15;5.35;;;;;;;20.34;84.80;99677.88;5055117;28;20128;-72
2021/07/11 11:02:43;;;;;;;8.63;5.50;;;;;;;20.36;84.87;99674.31;5037173;28;20132;-71
2021/07/11 11:05:20;;;;;;;8.30;6.15;;;;;;;20.39;84.98;99678.53;5054635;28;20120;-70
2021/07/11 11:07:50;;;;;;;9.48;6.60;;;;;;;20.46;84.60;99679.97;5055179;28;20380;-71
2021/07/11 11:10:39;;;;;;;9.57;6.82;;;;;;;20.49;84.51;99682.44;5054909;28;20067;-70
2021/07/11 11:13:21;;;;;;;9.88;6.80;;;;;;;20.49;84.80;99692.81;5054560;28;20059;-71
2021/07/11 11:15:53;;;;;;;8.93;6.63;;;;;;;20.46;84.43;99703.28;5054755;28;20044;-73
2021/07/11 11:18:24;;;;;;;8.68;7.13;;;;;;;20.45;84.62;99714.56;5054301;28;20091;-71
2021/07/11 11:20:56;;;;;;;9.82;7.28;;;;;;;20.43;84.79;99713.78;5054390;28;20053;-73
2021/07/11 11:23:27;;;;;;;8.55;6.45;;;;;;;20.45;84.69;99709.38;5054204;28;20540;-72
2021/07/11 11:25:57;;;;;;;9.13;6.93;;;;;;;20.50;84.82;99704.84;5054038;28;20426;-72
2021/07/11 11:28:35;;;;;;;9.18;7.00;;;;;;;20.54;84.59;99690.84;5054200;28;20072;-71
2021/07/11 11:31:15;;;;;;;8.70;6.47;;;;;;;20.54;84.31;99670.94;5053954;28;20059;-71
2021/07/11 11:33:57;;;;;;;7.75;6.45;;;;;;;20.52;84.24;99667.56;5054162;28;20102;-72
2021/07/11 11:36:29;;;;;;;7.82;6.25;;;;;;;20.53;84.16;99658.91;5054087;28;20056;-73
2021/07/11 11:39:01;;;;;;;8.70;6.50;;;;;;;20.54;84.21;99660.56;5054269;28;20491;-73
2021/07/11 11:41:32;;;;;;;7.80;5.72;;;;;;;20.59;84.17;99660.38;5054112;28;20128;-73
2021/07/11 11:44:12;;;;;;;10.00;6.57;;;;;;;20.66;84.16;99657.47;5054231;28;20048;-69
2021/07/11 11:46:43;;;;;;;8.63;7.05;;;;;;;20.77;84.19;99662.22;5054224;28;20450;-73
2021/07/11 11:49:14;;;;;;;8.55;6.70;;;;;;;20.84;84.09;99653.25;5053928;28;20033;-73
2021/07/11 11:51:45;;;;;;;9.23;6.45;;;;;;;20.91;84.29;99641.72;5054703;28;20458;-73
2021/07/11 11:54:26;;;;;;;9.32;6.53;;;;;;;20.99;83.95;99642.22;5053873;28;20049;-73